createdAt,value
2023-05-05T00:01:23.327Z,53.94
2023-05-05T00:03:49.845Z,54.15
2023-05-05T00:06:16.522Z,54.20
2023-05-05T00:08:42.878Z,54.27
2023-05-05T00:11:09.335Z,54.54
2023-05-05T00:13:35.805Z,54.56
2023-05-05T00:16:02.240Z,54.66
2023-05-05T00:18:53.606Z,54.65
2023-05-05T00:21:19.989Z,54.53
2023-05-05T00:23:46.389Z,54.76
2023-05-05T00:26:13.192Z,54.99
2023-05-05T00:28:39.655Z,55.34
2023-05-05T00:31:06.851Z,55.60
2023-05-05T00:33:33.197Z,55.76
2023-05-05T00:35:59.687Z,56.15
2023-05-05T00:38:26.765Z,56.20
2023-05-05T00:40:53.056Z,56.46
2023-05-05T00:43:19.455Z,56.53
2023-05-05T00:45:47.147Z,56.72
2023-05-05T00:48:13.954Z,57.70
2023-05-05T00:50:43.237Z,58.76
2023-05-05T00:53:09.716Z,59.34
2023-05-05T00:55:36.310Z,59.67
2023-05-05T00:58:33.046Z,59.76
2023-05-05T01:00:59.446Z,59.93
2023-05-05T01:03:26.088Z,60.15
2023-05-05T01:06:00.155Z,60.11
2023-05-05T01:08:55.980Z,60.46
2023-05-05T01:11:29.326Z,60.50
2023-05-05T01:14:16.875Z,60.42
2023-05-05T01:16:58.433Z,60.48
2023-05-05T01:19:27.684Z,60.57
2023-05-05T01:21:59.816Z,60.97
2023-05-05T01:24:43.544Z,61.36
2023-05-05T01:27:29.794Z,61.58
2023-05-05T01:30:05.053Z,61.85
2023-05-05T01:32:35.024Z,62.14
2023-05-05T01:35:13.163Z,62.21
2023-05-05T01:38:02.470Z,62.50
2023-05-05T01:40:32.886Z,62.61
2023-05-05T01:43:01.107Z,62.77
2023-05-05T01:45:31.535Z,62.58
2023-05-05T01:47:58.853Z,61.71
2023-05-05T01:50:28.237Z,61.43
2023-05-05T01:52:56.351Z,61.49
2023-05-05T01:55:25.599Z,61.43
2023-05-05T01:57:54.601Z,61.36
2023-05-05T02:00:22.194Z,61.46
2023-05-05T02:02:49.758Z,61.63
2023-05-05T02:05:18.972Z,61.78
2023-05-05T02:07:46.114Z,61.82
2023-05-05T02:10:13.996Z,61.92
2023-05-05T02:12:43.988Z,61.74
2023-05-05T02:15:12.109Z,61.50
2023-05-05T02:17:42.917Z,61.58
2023-05-05T02:20:12.166Z,61.40
2023-05-05T02:22:39.302Z,60.94
2023-05-05T02:25:06.458Z,60.61
2023-05-05T02:28:02.024Z,60.34
2023-05-05T02:30:33.861Z,60.28
2023-05-05T02:33:06.615Z,59.86
2023-05-05T02:35:41.425Z,59.87
2023-05-05T02:39:24.539Z,59.85
2023-05-05T02:41:54.715Z,59.54
2023-05-05T02:44:23.717Z,59.44
2023-05-05T02:46:50.734Z,59.42
2023-05-05T02:49:17.087Z,59.40
2023-05-05T02:51:43.446Z,59.54
2023-05-05T02:54:10.487Z,59.57
2023-05-05T02:56:50.940Z,59.76
2023-05-05T02:59:20.452Z,59.77
2023-05-05T03:02:07.731Z,59.91
2023-05-05T03:04:48.458Z,60.05
2023-05-05T03:07:24.317Z,60.28
2023-05-05T03:10:11.118Z,60.41
2023-05-05T03:12:53.225Z,60.60
2023-05-05T03:15:25.781Z,60.75
2023-05-05T03:17:53.467Z,60.56
2023-05-05T03:20:21.154Z,60.75
2023-05-05T03:22:47.976Z,60.61
2023-05-05T03:25:14.307Z,60.64
2023-05-05T03:27:40.656Z,60.65
2023-05-05T03:30:08.393Z,60.52
2023-05-05T03:32:34.928Z,60.49
2023-05-05T03:35:01.450Z,60.54
2023-05-05T03:37:27.810Z,60.65
2023-05-05T03:39:54.575Z,60.47
2023-05-05T03:46:29.486Z,60.20
2023-05-05T03:48:58.273Z,60.10
2023-05-05T03:51:24.784Z,59.74
2023-05-05T03:53:51.320Z,59.70
2023-05-05T03:56:17.650Z,59.84
2023-05-05T03:58:44.039Z,59.86
2023-05-05T04:01:11.002Z,59.47
2023-05-05T04:03:38.352Z,59.71
2023-05-05T04:06:05.371Z,59.44
2023-05-05T04:12:48.722Z,59.75
2023-05-05T04:15:15.203Z,60.17
2023-05-05T04:17:42.378Z,61.44
2023-05-05T04:24:28.790Z,62.16
2023-05-05T04:26:55.196Z,62.06
2023-05-05T04:29:21.473Z,62.39
2023-05-05T04:31:47.976Z,62.33
2023-05-05T04:34:16.851Z,61.67
2023-05-05T04:36:43.127Z,61.20
2023-05-05T04:39:09.635Z,60.71
2023-05-05T04:41:35.990Z,60.38
2023-05-05T04:44:02.468Z,60.04
2023-05-05T04:46:28.862Z,58.96
2023-05-05T04:48:55.442Z,58.36
2023-05-05T04:51:21.904Z,58.19
2023-05-05T04:53:48.334Z,57.93
2023-05-05T04:56:15.179Z,57.39
2023-05-05T04:58:41.468Z,57.12
2023-05-05T05:01:07.876Z,56.83
2023-05-05T05:03:36.801Z,56.11
2023-05-05T05:06:03.212Z,55.27
2023-05-05T05:08:29.576Z,54.92
2023-05-05T05:10:55.907Z,54.48
2023-05-05T05:13:23.552Z,54.11
2023-05-05T05:15:50.190Z,53.61
2023-05-05T05:18:16.506Z,52.85
2023-05-05T05:20:43.247Z,52.21
2023-05-05T05:23:09.632Z,51.57
2023-05-05T05:25:35.947Z,50.78
2023-05-05T05:28:09.354Z,49.18
2023-05-05T05:30:37.028Z,48.30
2023-05-05T05:33:03.350Z,47.07
2023-05-05T05:35:30.842Z,45.85
2023-05-05T05:37:57.165Z,46.40
2023-05-05T05:40:23.754Z,46.44
2023-05-05T05:42:50.129Z,45.52
2023-05-05T05:45:16.541Z,44.35
2023-05-05T05:54:37.879Z,44.92
2023-05-05T05:57:32.193Z,45.41
2023-05-05T06:00:01.831Z,45.68
2023-05-05T06:02:30.353Z,44.73
2023-05-05T06:04:58.670Z,43.31
2023-05-05T06:07:26.356Z,42.95
2023-05-05T06:14:02.688Z,38.68
2023-05-05T06:16:30.683Z,37.12
2023-05-05T06:18:58.416Z,36.58
2023-05-05T06:21:26.136Z,36.37
2023-05-05T06:23:53.969Z,33.54
2023-05-05T06:26:21.861Z,33.56
2023-05-05T06:28:49.669Z,32.85
2023-05-05T06:31:17.602Z,32.44
2023-05-05T06:33:45.243Z,32.86
2023-05-05T06:36:13.013Z,33.30
2023-05-05T06:38:41.470Z,33.98
2023-05-05T06:41:09.575Z,34.03
2023-05-05T06:43:37.260Z,33.44
2023-05-05T06:46:05.171Z,32.45
2023-05-05T06:48:32.891Z,31.11
2023-05-05T06:51:00.811Z,30.07
2023-05-05T06:53:28.624Z,29.87
2023-05-05T06:55:56.303Z,29.41
2023-05-05T06:58:24.070Z,30.09
2023-05-05T07:00:51.820Z,31.04
2023-05-05T07:03:19.777Z,32.31
2023-05-05T07:05:47.717Z,32.87
2023-05-05T07:08:15.421Z,33.49
2023-05-05T07:10:43.225Z,32.29
2023-05-05T07:13:10.999Z,31.19
2023-05-05T07:15:46.422Z,31.47
2023-05-05T07:18:14.485Z,31.28
2023-05-05T07:20:43.642Z,30.81
2023-05-05T07:23:11.359Z,30.21
2023-05-05T07:25:39.209Z,31.32
2023-05-05T07:28:06.989Z,30.86
2023-05-05T07:30:34.644Z,30.60
2023-05-05T07:33:03.004Z,30.83
2023-05-05T07:35:30.732Z,29.70
2023-05-05T07:37:58.466Z,29.84
2023-05-05T07:40:26.236Z,29.28
2023-05-05T07:42:53.957Z,29.09
2023-05-05T07:45:21.813Z,29.03
2023-05-05T07:47:49.553Z,30.16
2023-05-05T07:50:18.030Z,30.01
2023-05-05T07:52:49.991Z,30.61
2023-05-05T07:55:21.575Z,30.32
2023-05-05T07:57:49.875Z,30.10
2023-05-05T08:00:19.463Z,29.54
2023-05-05T08:02:48.734Z,29.15
2023-05-05T08:05:16.979Z,29.73
2023-05-05T08:07:44.752Z,29.91
2023-05-05T08:10:12.929Z,30.17
2023-05-05T08:12:40.849Z,29.25
2023-05-05T08:15:09.188Z,29.83
2023-05-05T08:17:52.019Z,30.06
2023-05-05T08:20:20.633Z,28.78
2023-05-05T08:22:50.102Z,28.26
2023-05-05T08:25:17.857Z,27.81
2023-05-05T08:27:46.032Z,28.58
2023-05-05T08:30:14.260Z,28.84
2023-05-05T08:32:41.974Z,28.55
2023-05-05T08:35:42.545Z,28.52
2023-05-05T08:39:37.027Z,27.48
2023-05-05T08:42:41.096Z,26.64
2023-05-05T08:45:40.910Z,27.27
2023-05-05T08:48:51.153Z,27.54
2023-05-05T08:55:19.156Z,25.67
2023-05-05T08:58:25.998Z,26.74
2023-05-05T09:01:21.540Z,26.19
2023-05-05T09:03:53.716Z,25.72
2023-05-05T09:06:39.761Z,27.17
2023-05-05T09:09:10.336Z,27.45
2023-05-05T09:11:39.393Z,28.48
2023-05-05T09:14:07.268Z,28.54
2023-05-05T09:16:35.155Z,28.80
2023-05-05T09:19:04.311Z,29.18
2023-05-05T09:21:32.462Z,29.09
2023-05-05T09:24:10.710Z,28.86
2023-05-05T09:26:43.434Z,28.20
2023-05-05T09:29:21.316Z,28.18
2023-05-05T09:32:05.780Z,27.78
2023-05-05T09:34:36.952Z,27.90
2023-05-05T09:37:06.046Z,27.08
2023-05-05T09:39:33.932Z,26.56
2023-05-05T09:42:03.220Z,27.25
2023-05-05T09:44:35.995Z,27.03
2023-05-05T09:47:07.243Z,26.29
2023-05-05T09:49:39.901Z,26.42
2023-05-05T09:52:16.772Z,26.67
2023-05-05T09:54:44.503Z,26.71
2023-05-05T09:57:33.499Z,27.80
2023-05-05T10:00:02.290Z,29.29
2023-05-05T10:02:38.746Z,30.32
2023-05-05T10:06:09.886Z,30.34
2023-05-05T10:08:39.919Z,31.05
2023-05-05T10:11:07.794Z,31.89
2023-05-05T10:13:42.179Z,32.16
2023-05-05T10:16:12.608Z,31.01
2023-05-05T10:18:46.474Z,29.91
2023-05-05T10:26:53.330Z,27.79
2023-05-05T10:29:46.102Z,27.08
2023-05-05T10:33:30.255Z,26.62
2023-05-05T10:36:02.641Z,25.60
2023-05-05T10:38:31.284Z,25.67
2023-05-05T10:41:02.356Z,25.22
2023-05-05T10:43:32.654Z,25.03
2023-05-05T10:46:09.568Z,25.52
2023-05-05T10:48:47.850Z,25.02
2023-05-05T10:51:39.978Z,25.51
2023-05-05T10:54:13.119Z,25.05
2023-05-05T10:56:42.105Z,25.41
2023-05-05T10:59:38.258Z,25.41
2023-05-05T11:02:20.042Z,25.36
2023-05-05T11:05:16.986Z,25.92
2023-05-05T11:07:46.466Z,26.86
2023-05-05T11:10:15.786Z,27.09
2023-05-05T11:13:06.975Z,27.73
2023-05-05T11:15:37.753Z,28.25
2023-05-05T11:18:07.762Z,28.44
2023-05-05T11:20:40.129Z,28.43
2023-05-05T11:23:07.972Z,28.74
2023-05-05T11:25:42.246Z,28.85
2023-05-05T11:28:17.799Z,28.25
2023-05-05T11:30:54.979Z,27.70
2023-05-05T11:33:36.035Z,27.94
2023-05-05T11:36:06.722Z,27.72
2023-05-05T11:38:40.589Z,27.43
2023-05-05T11:41:24.838Z,26.95
2023-05-05T11:44:12.282Z,26.20
2023-05-05T11:46:41.359Z,25.61
2023-05-05T11:49:09.463Z,25.78
2023-05-05T11:51:37.690Z,25.97
2023-05-05T11:54:05.770Z,26.61
2023-05-05T11:56:33.517Z,27.31
2023-05-05T11:59:10.043Z,27.38
2023-05-05T12:01:41.695Z,27.16
2023-05-05T12:04:14.585Z,26.58
2023-05-05T12:06:43.032Z,26.28
2023-05-05T12:09:21.937Z,25.62
2023-05-05T12:11:53.089Z,25.72
2023-05-05T12:14:21.434Z,26.61
2023-05-05T12:17:25.661Z,26.14
2023-05-05T12:19:55.036Z,25.88
2023-05-05T12:22:27.025Z,26.02
2023-05-05T12:24:56.280Z,26.05
2023-05-05T12:27:25.394Z,25.47
2023-05-05T12:29:57.867Z,25.67
2023-05-05T12:32:28.054Z,25.55
2023-05-05T12:34:59.265Z,25.36
2023-05-05T12:37:27.603Z,25.41
2023-05-05T12:39:55.580Z,25.49
2023-05-05T12:42:23.495Z,25.31
2023-05-05T12:45:46.853Z,25.95
2023-05-05T12:48:23.962Z,25.54
2023-05-05T12:50:52.368Z,25.88
2023-05-05T12:53:24.164Z,26.31
2023-05-05T12:55:52.041Z,26.88
2023-05-05T12:58:19.801Z,26.78
2023-05-05T13:01:10.583Z,27.31
2023-05-05T13:03:38.531Z,27.41
2023-05-05T13:06:20.905Z,27.57
2023-05-05T13:08:48.625Z,26.78
2023-05-05T13:11:16.653Z,26.32
2023-05-05T13:13:44.385Z,27.17
2023-05-05T13:16:12.211Z,28.39
2023-05-05T13:18:47.431Z,29.48
2023-05-05T13:21:15.292Z,29.87
2023-05-05T13:23:46.228Z,30.81
2023-05-05T13:26:14.048Z,31.51
2023-05-05T13:28:41.897Z,32.10
2023-05-05T13:31:09.713Z,32.25
2023-05-05T13:33:37.622Z,33.20
2023-05-05T13:36:05.446Z,33.57
2023-05-05T13:38:33.338Z,33.90
2023-05-05T13:41:01.176Z,34.28
2023-05-05T13:43:29.069Z,34.13
2023-05-05T13:46:05.646Z,33.75
2023-05-05T13:48:40.878Z,33.08
2023-05-05T13:51:08.750Z,32.92
2023-05-05T13:53:36.584Z,32.44
2023-05-05T13:56:04.653Z,31.93
2023-05-05T13:58:32.381Z,32.09
2023-05-05T14:01:00.152Z,31.25
2023-05-05T14:03:27.966Z,30.19
2023-05-05T14:05:55.924Z,29.87
2023-05-05T14:08:23.689Z,29.79
2023-05-05T14:10:52.272Z,30.39
2023-05-05T14:13:20.140Z,31.10
2023-05-05T14:15:50.358Z,31.82
2023-05-05T14:18:18.200Z,32.59
2023-05-05T14:20:48.186Z,33.03
2023-05-05T14:23:15.877Z,33.14
2023-05-05T14:25:43.625Z,33.16
2023-05-05T14:28:11.258Z,33.45
2023-05-05T14:30:40.371Z,33.46
2023-05-05T14:33:08.183Z,33.83
2023-05-05T14:35:37.264Z,34.22
2023-05-05T14:38:05.015Z,34.50
2023-05-05T14:40:32.830Z,34.12
2023-05-05T14:43:00.722Z,33.93
2023-05-05T14:45:29.699Z,34.11
2023-05-05T14:47:57.595Z,34.00
2023-05-05T14:50:25.296Z,34.13
2023-05-05T14:52:53.471Z,34.79
2023-05-05T14:55:21.492Z,34.10
2023-05-05T14:57:49.118Z,32.33
2023-05-05T15:00:17.086Z,30.28
2023-05-05T15:02:45.095Z,29.67
2023-05-05T15:05:12.867Z,30.38
2023-05-05T15:07:40.517Z,30.35
2023-05-05T15:10:09.047Z,30.58
2023-05-05T15:12:36.949Z,31.89
2023-05-05T15:15:08.663Z,32.51
2023-05-05T15:17:38.798Z,33.35
2023-05-05T15:20:10.091Z,32.62
2023-05-05T15:22:37.760Z,31.93
2023-05-05T15:25:09.625Z,31.87
2023-05-05T15:27:38.350Z,32.15
2023-05-05T15:30:07.152Z,32.92
2023-05-05T15:32:34.956Z,33.73
2023-05-05T15:35:02.900Z,33.79
2023-05-05T15:37:30.632Z,32.49
2023-05-05T15:39:58.797Z,31.39
2023-05-05T15:42:26.831Z,30.33
2023-05-05T15:44:55.395Z,29.05
2023-05-05T15:47:23.176Z,28.77
2023-05-05T15:49:59.351Z,28.47
2023-05-05T15:52:27.113Z,27.63
2023-05-05T15:54:56.014Z,27.93
2023-05-05T15:57:23.698Z,27.85
2023-05-05T15:59:54.600Z,28.87
2023-05-05T16:02:22.460Z,30.18
2023-05-05T16:04:50.348Z,31.95
2023-05-05T16:07:18.060Z,32.86
2023-05-05T16:10:16.862Z,33.14
2023-05-05T16:12:44.674Z,34.32
2023-05-05T16:15:12.550Z,35.18
2023-05-05T16:17:40.330Z,35.44
2023-05-05T16:20:08.521Z,35.94
2023-05-05T16:22:36.915Z,36.18
2023-05-05T16:25:04.946Z,37.04
2023-05-05T16:27:32.671Z,37.94
2023-05-05T16:30:10.224Z,38.71
2023-05-05T16:32:38.714Z,39.18
2023-05-05T16:38:56.413Z,40.17
2023-05-05T16:41:24.321Z,40.39
2023-05-05T16:43:52.382Z,40.55
2023-05-05T16:46:20.697Z,41.56
2023-05-05T16:48:48.604Z,41.51
2023-05-05T16:51:16.486Z,41.85
2023-05-05T16:53:44.162Z,41.88
2023-05-05T16:56:13.092Z,42.15
2023-05-05T16:58:41.003Z,42.52
2023-05-05T17:01:08.786Z,42.86
2023-05-05T17:03:36.418Z,43.46
2023-05-05T17:06:04.383Z,44.19
2023-05-05T17:08:33.983Z,44.98
2023-05-05T17:11:01.594Z,45.28
2023-05-05T17:13:33.268Z,45.57
2023-05-05T17:16:01.630Z,45.73
2023-05-05T17:18:30.957Z,46.09
2023-05-05T17:21:03.494Z,46.06
2023-05-05T17:23:37.481Z,45.71
2023-05-05T17:26:06.312Z,46.27
2023-05-05T17:28:44.442Z,46.41
2023-05-05T17:31:12.629Z,46.71
2023-05-05T17:33:40.431Z,47.17
2023-05-05T17:36:09.016Z,47.38
2023-05-05T17:38:36.831Z,47.39
2023-05-05T17:47:33.070Z,48.90
2023-05-05T17:54:18.756Z,50.20
2023-05-05T17:56:47.854Z,50.62
2023-05-05T17:59:14.178Z,50.91
2023-05-05T18:01:40.747Z,51.29
2023-05-05T18:04:08.655Z,51.71
2023-05-05T18:06:35.053Z,52.09
2023-05-05T18:09:02.859Z,52.40
2023-05-05T18:11:30.440Z,52.60
2023-05-05T18:13:57.111Z,52.92
2023-05-05T18:16:27.149Z,53.21
2023-05-05T18:18:56.675Z,53.51
2023-05-05T18:21:23.232Z,53.80
2023-05-05T18:23:49.767Z,53.93
2023-05-05T18:26:16.926Z,54.03
2023-05-05T18:28:43.420Z,54.53
2023-05-05T18:31:10.266Z,54.83
2023-05-05T18:33:36.810Z,55.18
2023-05-05T18:36:03.578Z,55.12
2023-05-05T18:38:31.729Z,55.44
2023-05-05T18:40:58.220Z,55.59
2023-05-05T18:43:24.886Z,55.86
2023-05-05T18:45:51.356Z,56.13
2023-05-05T18:48:17.840Z,56.44
2023-05-05T18:50:46.158Z,56.94
2023-05-05T18:53:14.128Z,57.14
2023-05-05T18:55:43.579Z,57.30
2023-05-05T18:58:10.006Z,57.46
2023-05-05T19:00:36.767Z,57.24
2023-05-05T19:03:09.532Z,57.25
2023-05-05T19:05:40.162Z,57.17
2023-05-05T19:08:06.867Z,57.23
2023-05-05T19:10:45.259Z,57.25
2023-05-05T19:13:17.484Z,57.69
2023-05-05T19:15:44.297Z,57.86
2023-05-05T19:18:10.926Z,57.79
2023-05-05T19:20:38.095Z,58.01
2023-05-05T19:23:06.417Z,58.09
2023-05-05T19:25:36.301Z,58.03
2023-05-05T19:28:03.049Z,58.16
2023-05-05T19:30:31.726Z,58.19
2023-05-05T19:32:58.654Z,58.34
2023-05-05T19:35:25.676Z,58.39
2023-05-05T19:37:52.359Z,58.24
2023-05-05T19:40:18.959Z,58.19
2023-05-05T19:42:48.635Z,58.12
2023-05-05T19:45:16.176Z,58.47
2023-05-05T19:47:42.802Z,58.69
2023-05-05T19:50:10.206Z,58.86
2023-05-05T19:52:37.758Z,58.92
2023-05-05T19:55:06.104Z,58.88
2023-05-05T19:57:32.717Z,58.97
2023-05-05T20:00:00.782Z,59.23
2023-05-05T20:02:31.021Z,59.37
2023-05-05T20:04:59.987Z,59.34
2023-05-05T20:07:26.754Z,59.33
2023-05-05T20:09:53.470Z,59.41
2023-05-05T20:12:22.487Z,59.40
2023-05-05T20:14:49.134Z,59.38
2023-05-05T20:17:19.438Z,59.47
2023-05-05T20:19:47.384Z,59.41
2023-05-05T20:22:13.961Z,59.48
2023-05-05T20:24:40.501Z,59.51
2023-05-05T20:27:07.356Z,59.72
2023-05-05T20:29:34.074Z,59.91
2023-05-05T20:32:25.231Z,60.14
2023-05-05T20:34:54.845Z,60.49
2023-05-05T20:37:21.629Z,60.42
2023-05-05T20:39:52.005Z,60.58
2023-05-05T20:42:19.626Z,60.78
2023-05-05T20:44:46.269Z,60.88
2023-05-05T20:47:12.916Z,60.81
2023-05-05T20:49:49.176Z,60.93
2023-05-05T20:53:34.391Z,61.10
2023-05-05T20:57:18.296Z,61.48
2023-05-05T21:03:14.031Z,61.87
2023-05-05T21:06:26.954Z,62.07
2023-05-05T21:33:43.853Z,63.87
2023-05-05T21:53:16.296Z,64.50
2023-05-05T22:06:44.765Z,65.06
2023-05-05T22:13:49.033Z,65.73
2023-05-05T22:17:01.430Z,65.83
2023-05-05T22:33:06.162Z,66.51
2023-05-05T22:36:08.891Z,66.81
2023-05-05T22:42:34.037Z,67.39
2023-05-05T22:47:37.675Z,67.76
2023-05-05T22:51:22.969Z,68.07
2023-05-05T22:55:35.675Z,68.35
2023-05-05T22:58:34.258Z,68.69
2023-05-05T23:01:24.360Z,68.56
2023-05-05T23:03:52.572Z,68.77
2023-05-05T23:07:00.296Z,69.08
2023-05-05T23:09:28.680Z,69.32
2023-05-05T23:13:03.863Z,69.49
2023-05-05T23:15:38.011Z,69.74
2023-05-05T23:18:12.268Z,69.99
2023-05-05T23:23:07.488Z,70.22
2023-05-05T23:26:29.421Z,70.61
2023-05-05T23:30:43.568Z,70.61
2023-05-05T23:33:50.368Z,70.65
2023-05-05T23:38:07.376Z,70.67
2023-05-05T23:42:10.451Z,70.75
2023-05-05T23:44:59.184Z,70.82
2023-05-05T23:51:17.667Z,70.97
2023-05-05T23:58:17.648Z,70.45
